createdAt,value
2018-03-11T00:00:41.298Z,12.77
2018-03-11T00:02:34.585Z,12.88
2018-03-11T00:03:34.504Z,12.81
2018-03-11T00:05:27.776Z,12.78
2018-03-11T00:06:27.711Z,12.86
2018-03-11T00:08:21.000Z,12.80
2018-03-11T00:09:20.918Z,12.78
2018-03-11T00:11:14.297Z,12.78
2018-03-11T00:12:14.126Z,12.78
2018-03-11T00:14:07.414Z,12.84
2018-03-11T00:15:07.332Z,12.74
2018-03-11T00:17:00.593Z,12.81
2018-03-11T00:18:00.529Z,12.77
2018-03-11T00:19:53.807Z,12.84
2018-03-11T00:20:53.724Z,12.81
2018-03-11T00:22:47.014Z,12.83
2018-03-11T00:23:46.932Z,12.76
2018-03-11T00:25:40.204Z,12.81
2018-03-11T00:26:40.139Z,12.78
2018-03-11T00:28:33.427Z,12.77
2018-03-11T00:29:33.344Z,12.89
2018-03-11T00:31:26.612Z,12.84
2018-03-11T00:32:26.540Z,12.76
2018-03-11T00:34:19.829Z,12.81
2018-03-11T00:35:19.747Z,12.76
2018-03-11T00:37:13.128Z,12.83
2018-03-11T00:38:12.953Z,12.86
2018-03-11T00:40:06.235Z,12.80
2018-03-11T00:41:06.150Z,12.86
2018-03-11T00:42:59.546Z,12.81
2018-03-11T00:43:59.357Z,12.89
2018-03-11T00:45:52.621Z,12.81
2018-03-11T00:46:52.554Z,12.80
2018-03-11T00:48:45.842Z,12.86
2018-03-11T00:49:45.762Z,12.81
2018-03-11T00:51:39.022Z,12.84
2018-03-11T00:52:38.958Z,12.88
2018-03-11T00:54:32.245Z,12.81
2018-03-11T00:55:32.165Z,12.91
2018-03-11T00:57:25.541Z,12.84
2018-03-11T00:58:25.372Z,12.81
2018-03-11T01:00:18.775Z,12.91
2018-03-11T01:01:18.578Z,12.83
2018-03-11T01:03:11.867Z,12.84
2018-03-11T01:04:11.785Z,12.91
2018-03-11T01:06:05.056Z,12.88
2018-03-11T01:07:04.994Z,12.88
2018-03-11T01:08:58.316Z,12.91
2018-03-11T01:09:58.232Z,12.88
2018-03-11T01:11:51.504Z,12.83
2018-03-11T01:12:51.440Z,12.84
2018-03-11T01:14:44.734Z,12.86
2018-03-11T01:15:44.648Z,12.88
2018-03-11T01:17:37.919Z,12.86
2018-03-11T01:18:37.854Z,12.84
2018-03-11T01:20:31.143Z,12.86
2018-03-11T01:21:31.062Z,12.91
2018-03-11T01:23:24.457Z,12.80
2018-03-11T01:24:24.269Z,12.89
2018-03-11T01:26:17.542Z,12.88
2018-03-11T01:27:17.478Z,12.86
2018-03-11T01:29:10.766Z,12.84
2018-03-11T01:30:10.685Z,12.86
2018-03-11T01:32:03.957Z,12.89
2018-03-11T01:33:03.894Z,12.77
2018-03-11T01:34:57.175Z,12.78
2018-03-11T01:35:57.089Z,12.74
2018-03-11T01:37:50.361Z,12.76
2018-03-11T01:38:50.298Z,12.74
2018-03-11T01:40:43.578Z,12.63
2018-03-11T01:41:43.495Z,12.66
2018-03-11T01:43:36.891Z,12.63
2018-03-11T01:44:36.700Z,12.52
2018-03-11T01:46:29.964Z,12.47
2018-03-11T01:47:29.899Z,12.47
2018-03-11T01:49:23.179Z,12.52
2018-03-11T01:50:23.100Z,12.56
2018-03-11T01:52:16.368Z,12.52
2018-03-11T01:53:16.302Z,12.51
2018-03-11T01:55:09.581Z,12.38
2018-03-11T01:56:09.498Z,12.37
2018-03-11T01:58:02.768Z,12.34
2018-03-11T01:59:02.703Z,12.34
2018-03-11T02:00:55.992Z,12.34
2018-03-11T02:01:55.909Z,12.31
2018-03-11T02:03:49.302Z,12.22
2018-03-11T02:04:49.112Z,12.23
2018-03-11T02:06:42.376Z,12.13
2018-03-11T02:07:42.310Z,12.20
2018-03-11T02:09:35.598Z,12.08
2018-03-11T02:10:35.513Z,12.18
2018-03-11T02:12:28.784Z,12.15
2018-03-11T02:13:28.717Z,12.01
2018-03-11T02:15:22.116Z,12.01
2018-03-11T02:16:21.920Z,12.05
2018-03-11T02:18:15.296Z,12.03
2018-03-11T02:19:15.124Z,11.86
2018-03-11T02:21:08.520Z,11.95
2018-03-11T02:22:08.328Z,11.89
2018-03-11T02:24:01.620Z,11.84
2018-03-11T02:25:01.534Z,11.82
2018-03-11T02:26:54.928Z,11.71
2018-03-11T02:27:54.728Z,11.73
2018-03-11T02:29:48.103Z,11.70
2018-03-11T02:30:47.930Z,11.67
2018-03-11T02:32:41.215Z,11.63
2018-03-11T02:33:41.134Z,11.63
2018-03-11T02:35:34.420Z,11.68
2018-03-11T02:36:34.342Z,11.64
2018-03-11T02:38:27.603Z,11.63
2018-03-11T02:39:27.537Z,11.61
2018-03-11T02:41:20.930Z,11.60
2018-03-11T02:42:20.744Z,11.59
2018-03-11T02:44:14.015Z,11.63
2018-03-11T02:45:13.930Z,11.64
2018-03-11T02:47:07.192Z,11.60
2018-03-11T02:48:07.126Z,11.60
2018-03-11T02:50:00.520Z,11.49
2018-03-11T02:51:00.330Z,11.51
2018-03-11T02:52:53.595Z,11.52
2018-03-11T02:53:53.527Z,11.57
2018-03-11T02:55:46.815Z,11.49
2018-03-11T02:56:46.731Z,11.45
2018-03-11T02:58:39.988Z,11.46
2018-03-11T02:59:39.921Z,11.43
2018-03-11T03:01:33.207Z,11.41
2018-03-11T03:02:33.122Z,11.41
2018-03-11T03:04:26.517Z,11.33
2018-03-11T03:05:26.323Z,11.39
2018-03-11T03:07:19.585Z,11.34
2018-03-11T03:08:19.516Z,11.28
2018-03-11T03:10:12.791Z,11.41
2018-03-11T03:11:12.708Z,11.28
2018-03-11T03:13:06.083Z,11.33
2018-03-11T03:14:05.922Z,11.39
2018-03-11T03:15:59.200Z,11.24
2018-03-11T03:16:59.111Z,11.28
2018-03-11T03:18:52.486Z,11.30
2018-03-11T03:19:52.310Z,11.27
2018-03-11T03:21:45.707Z,11.30
2018-03-11T03:22:45.517Z,11.23
2018-03-11T03:24:38.804Z,11.21
2018-03-11T03:25:38.717Z,11.12
2018-03-11T03:27:32.092Z,11.20
2018-03-11T03:28:31.916Z,11.13
2018-03-11T03:30:25.311Z,11.12
2018-03-11T03:31:25.117Z,11.13
2018-03-11T03:33:18.388Z,11.02
2018-03-11T03:34:18.320Z,11.08
2018-03-11T03:36:11.607Z,11.12
2018-03-11T03:37:11.522Z,11.09
2018-03-11T03:39:04.893Z,10.98
2018-03-11T03:40:04.722Z,11.05
2018-03-11T03:41:58.008Z,11.02
2018-03-11T03:42:57.922Z,11.02
2018-03-11T03:44:51.226Z,11.00
2018-03-11T03:45:51.124Z,10.85
2018-03-11T03:47:44.392Z,10.88
2018-03-11T03:48:44.328Z,10.83
2018-03-11T03:50:37.718Z,10.85
2018-03-11T03:51:37.524Z,10.87
2018-03-11T03:53:30.782Z,10.87
2018-03-11T03:54:30.715Z,10.79
2018-03-11T03:56:23.991Z,10.79
2018-03-11T03:57:23.906Z,10.83
2018-03-11T03:59:17.175Z,10.77
2018-03-11T04:00:17.108Z,10.83
2018-03-11T04:02:10.383Z,10.72
2018-03-11T04:03:10.297Z,10.77
2018-03-11T04:05:03.582Z,10.73
2018-03-11T04:06:03.502Z,10.73
2018-03-11T04:07:56.876Z,10.72
2018-03-11T04:08:56.711Z,10.67
2018-03-11T04:10:49.991Z,10.73
2018-03-11T04:11:49.906Z,10.70
2018-03-11T04:13:43.280Z,10.77
2018-03-11T04:14:43.107Z,10.75
2018-03-11T04:16:36.384Z,10.70
2018-03-11T04:17:36.297Z,10.67
2018-03-11T04:19:29.564Z,10.70
2018-03-11T04:20:29.496Z,10.67
2018-03-11T04:22:22.780Z,10.75
2018-03-11T04:23:22.696Z,10.77
2018-03-11T04:25:15.980Z,10.77
2018-03-11T04:26:15.895Z,10.77
2018-03-11T04:28:09.160Z,10.77
2018-03-11T04:29:09.093Z,10.72
2018-03-11T04:31:02.381Z,10.72
2018-03-11T04:32:02.292Z,10.72
2018-03-11T04:33:55.561Z,10.73
2018-03-11T04:34:55.494Z,10.69
2018-03-11T04:36:48.885Z,10.72
2018-03-11T04:37:48.683Z,10.72
2018-03-11T04:39:42.052Z,10.72
2018-03-11T04:40:41.884Z,10.70
2018-03-11T04:42:35.165Z,10.67
2018-03-11T04:43:35.083Z,10.59
2018-03-11T04:45:28.365Z,10.63
2018-03-11T04:46:28.320Z,10.59
2018-03-11T04:48:21.544Z,10.51
2018-03-11T04:49:21.478Z,10.61
2018-03-11T04:51:14.872Z,10.59
2018-03-11T04:52:14.676Z,10.57
2018-03-11T04:54:08.051Z,10.57
2018-03-11T04:55:07.873Z,10.51
2018-03-11T04:57:01.266Z,10.55
2018-03-11T04:58:01.062Z,10.52
2018-03-11T04:59:54.328Z,10.47
2018-03-11T05:00:54.261Z,10.52
2018-03-11T05:02:47.544Z,10.47
2018-03-11T05:03:47.460Z,10.47
2018-03-11T05:05:40.746Z,10.42
2018-03-11T05:06:40.657Z,10.44
2018-03-11T05:08:33.923Z,10.47
2018-03-11T05:09:33.854Z,10.38
2018-03-11T05:11:27.139Z,10.38
2018-03-11T05:12:27.052Z,10.39
2018-03-11T05:14:20.318Z,10.33
2018-03-11T05:15:20.249Z,10.28
2018-03-11T05:17:13.642Z,10.35
2018-03-11T05:18:13.440Z,10.29
2018-03-11T05:20:06.702Z,10.35
2018-03-11T05:21:06.638Z,10.31
2018-03-11T05:22:59.922Z,10.28
2018-03-11T05:23:59.836Z,10.35
2018-03-11T05:25:53.117Z,10.36
2018-03-11T05:26:53.078Z,10.36
2018-03-11T05:28:46.298Z,10.31
2018-03-11T05:29:46.229Z,10.32
2018-03-11T05:31:39.513Z,10.32
2018-03-11T05:32:39.428Z,10.26
2018-03-11T05:34:32.692Z,10.26
2018-03-11T05:35:32.625Z,10.25
2018-03-11T05:37:25.909Z,10.18
2018-03-11T05:38:25.824Z,10.25
2018-03-11T05:40:19.090Z,10.23
2018-03-11T05:41:19.021Z,10.26
2018-03-11T05:43:12.315Z,10.32
2018-03-11T05:44:12.228Z,10.33
2018-03-11T05:46:05.619Z,10.32
2018-03-11T05:47:05.424Z,10.29
2018-03-11T05:48:58.689Z,10.29
2018-03-11T05:49:58.621Z,10.25
2018-03-11T05:51:52.014Z,10.20
2018-03-11T05:52:51.818Z,10.25
2018-03-11T05:54:45.193Z,10.23
2018-03-11T05:55:45.022Z,10.21
2018-03-11T05:57:38.409Z,10.23
2018-03-11T05:58:38.228Z,10.23
2018-03-11T06:00:31.602Z,10.26
2018-03-11T06:01:31.425Z,10.31
2018-03-11T06:03:24.707Z,10.26
2018-03-11T06:04:24.625Z,10.23
2018-03-11T06:06:18.012Z,10.20
2018-03-11T06:07:17.817Z,10.25
2018-03-11T06:09:11.083Z,10.25
2018-03-11T06:10:11.014Z,10.13
2018-03-11T06:12:04.313Z,10.13
2018-03-11T06:13:04.229Z,10.15
2018-03-11T06:14:57.493Z,10.23
2018-03-11T06:15:57.425Z,10.29
2018-03-11T06:17:50.818Z,10.23
2018-03-11T06:18:50.620Z,10.14
2018-03-11T06:20:43.995Z,10.18
2018-03-11T06:21:43.819Z,10.14
2018-03-11T06:23:37.103Z,10.21
2018-03-11T06:24:37.014Z,10.20
2018-03-11T06:26:30.349Z,10.18
2018-03-11T06:27:30.203Z,10.05
2018-03-11T06:29:23.469Z,10.17
2018-03-11T06:30:23.400Z,10.20
2018-03-11T06:32:16.790Z,10.21
2018-03-11T06:33:16.601Z,10.23
2018-03-11T06:35:09.862Z,10.26
2018-03-11T06:36:09.791Z,10.20
2018-03-11T06:38:03.183Z,10.26
2018-03-11T06:39:02.988Z,10.29
2018-03-11T06:40:56.296Z,10.25
2018-03-11T06:41:56.226Z,10.28
2018-03-11T06:43:49.511Z,10.32
2018-03-11T06:44:49.425Z,10.33
2018-03-11T06:46:42.700Z,10.36
2018-03-11T06:47:42.614Z,10.36
2018-03-11T06:49:35.880Z,10.29
2018-03-11T06:50:35.810Z,10.42
2018-03-11T06:52:29.205Z,10.47
2018-03-11T06:53:29.011Z,10.52
2018-03-11T06:55:22.382Z,10.52
2018-03-11T06:56:22.235Z,10.47
2018-03-11T06:58:15.514Z,10.54
2018-03-11T06:59:15.427Z,10.52
2018-03-11T07:01:08.801Z,10.57
2018-03-11T07:02:08.624Z,10.54
2018-03-11T07:04:01.907Z,10.52
2018-03-11T07:05:01.821Z,10.59
2018-03-11T07:06:55.096Z,10.70
2018-03-11T07:07:55.011Z,10.73
2018-03-11T07:09:48.384Z,10.66
2018-03-11T07:10:48.267Z,10.73
2018-03-11T07:12:41.517Z,10.70
2018-03-11T07:13:41.425Z,10.70
2018-03-11T07:15:34.695Z,10.73
2018-03-11T07:16:34.624Z,10.77
2018-03-11T07:18:28.015Z,10.80
2018-03-11T07:19:27.823Z,10.77
2018-03-11T07:21:21.092Z,10.84
2018-03-11T07:22:21.021Z,10.90
2018-03-11T07:24:14.318Z,10.87
2018-03-11T07:25:14.230Z,10.88
2018-03-11T07:27:07.514Z,10.91
2018-03-11T07:28:07.427Z,10.88
2018-03-11T07:30:00.804Z,10.87
2018-03-11T07:31:00.627Z,10.90
2018-03-11T07:32:53.912Z,10.88
2018-03-11T07:33:53.827Z,10.91
2018-03-11T07:35:47.091Z,10.92
2018-03-11T07:36:47.024Z,10.90
2018-03-11T07:38:40.316Z,11.03
2018-03-11T07:39:40.228Z,10.94
2018-03-11T07:41:33.496Z,10.91
2018-03-11T07:42:33.426Z,10.95
2018-03-11T07:44:26.712Z,10.95
2018-03-11T07:45:26.628Z,11.02
2018-03-11T07:47:19.910Z,11.09
2018-03-11T07:48:19.826Z,11.16
2018-03-11T07:50:13.092Z,11.20
2018-03-11T07:51:13.024Z,11.30
2018-03-11T07:53:06.314Z,11.34
2018-03-11T07:54:06.228Z,11.28
2018-03-11T07:55:59.494Z,11.41
2018-03-11T07:56:59.428Z,11.41
2018-03-11T07:58:52.712Z,11.45
2018-03-11T07:59:52.628Z,11.41
2018-03-11T08:01:45.934Z,11.49
2018-03-11T08:02:45.831Z,11.49
2018-03-11T08:04:39.220Z,11.59
2018-03-11T08:05:39.025Z,11.63
2018-03-11T08:07:32.315Z,11.63
2018-03-11T08:08:32.229Z,11.60
2018-03-11T08:10:25.495Z,11.61
2018-03-11T08:11:25.428Z,11.64
2018-03-11T08:13:18.714Z,11.57
2018-03-11T08:14:18.628Z,11.56
2018-03-11T08:16:12.003Z,11.60
2018-03-11T08:17:11.828Z,11.68
2018-03-11T08:19:05.223Z,11.64
2018-03-11T08:20:05.031Z,11.67
2018-03-11T08:21:58.296Z,11.57
2018-03-11T08:22:58.231Z,11.59
2018-03-11T08:24:51.516Z,11.66
2018-03-11T08:25:51.463Z,11.59
2018-03-11T08:27:44.716Z,11.68
2018-03-11T08:28:44.631Z,11.63
2018-03-11T08:30:37.897Z,11.76
2018-03-11T08:31:37.832Z,11.82
2018-03-11T08:33:31.116Z,11.98
2018-03-11T08:34:31.035Z,12.01
2018-03-11T08:36:24.302Z,12.04
2018-03-11T08:37:24.234Z,12.15
2018-03-11T08:39:17.523Z,12.18
2018-03-11T08:40:17.439Z,12.26
2018-03-11T08:42:10.707Z,12.22
2018-03-11T08:43:10.640Z,12.25
2018-03-11T08:45:04.033Z,12.23
2018-03-11T08:46:03.843Z,12.31
2018-03-11T08:47:57.130Z,12.34
2018-03-11T08:48:57.045Z,12.37
2018-03-11T08:50:50.317Z,12.43
2018-03-11T08:51:50.249Z,12.38
2018-03-11T08:53:43.548Z,12.48
2018-03-11T08:54:43.448Z,12.51
2018-03-11T08:56:36.709Z,12.45
2018-03-11T08:57:36.645Z,12.44
2018-03-11T08:59:29.934Z,12.55
2018-03-11T09:00:29.845Z,12.48
2018-03-11T09:02:23.223Z,12.53
2018-03-11T09:03:23.049Z,12.52
2018-03-11T09:05:16.342Z,12.51
2018-03-11T09:06:16.250Z,12.43
2018-03-11T09:08:09.653Z,12.52
2018-03-11T09:09:09.460Z,12.55
2018-03-11T09:11:02.730Z,12.62
2018-03-11T09:12:02.662Z,12.65
2018-03-11T09:13:55.954Z,12.77
2018-03-11T09:14:55.869Z,12.78
2018-03-11T09:16:49.131Z,12.88
2018-03-11T09:17:49.064Z,12.86
2018-03-11T09:19:42.363Z,12.96
2018-03-11T09:20:42.279Z,12.92
2018-03-11T09:22:35.547Z,12.96
2018-03-11T09:23:35.487Z,13.11
2018-03-11T09:25:28.876Z,13.17
2018-03-11T09:26:28.685Z,13.21
2018-03-11T09:28:21.956Z,13.40
2018-03-11T09:29:21.891Z,13.55
2018-03-11T09:31:15.183Z,14.11
2018-03-11T09:32:15.096Z,14.30
2018-03-11T09:34:08.387Z,14.26
2018-03-11T09:35:08.305Z,14.23
2018-03-11T09:37:01.566Z,14.26
2018-03-11T09:38:01.501Z,14.16
2018-03-11T09:39:54.791Z,14.24
2018-03-11T09:40:54.703Z,14.27
2018-03-11T09:42:48.087Z,14.27
2018-03-11T09:43:47.916Z,14.24
2018-03-11T09:45:41.211Z,14.02
2018-03-11T09:46:41.127Z,14.01
2018-03-11T09:48:34.504Z,13.95
2018-03-11T09:49:34.336Z,14.08
2018-03-11T09:51:27.620Z,14.23
2018-03-11T09:52:27.542Z,14.16
2018-03-11T09:54:20.814Z,14.26
2018-03-11T09:55:20.751Z,14.20
2018-03-11T09:57:14.038Z,14.28
2018-03-11T09:58:13.949Z,14.26
2018-03-11T10:00:07.223Z,14.23
2018-03-11T10:01:07.159Z,14.26
2018-03-11T10:03:00.455Z,14.24
2018-03-11T10:04:00.367Z,14.21
2018-03-11T10:05:53.666Z,14.26
2018-03-11T10:06:53.574Z,14.27
2018-03-11T10:08:46.845Z,14.33
2018-03-11T10:09:46.780Z,14.30
2018-03-11T10:11:40.072Z,14.31
2018-03-11T10:12:39.989Z,14.34
2018-03-11T10:14:33.258Z,14.31
2018-03-11T10:15:33.196Z,14.36
2018-03-11T10:17:26.486Z,14.34
2018-03-11T10:18:26.404Z,14.36
2018-03-11T10:20:19.781Z,14.41
2018-03-11T10:21:19.611Z,14.39
2018-03-11T10:23:12.900Z,14.51
2018-03-11T10:24:12.820Z,14.71
2018-03-11T10:26:06.197Z,14.70
2018-03-11T10:27:06.031Z,14.83
2018-03-11T10:28:59.321Z,14.90
2018-03-11T10:29:59.240Z,14.87
2018-03-11T10:31:52.518Z,14.89
2018-03-11T10:32:52.456Z,14.95
2018-03-11T10:34:45.745Z,15.02
2018-03-11T10:35:45.663Z,14.97
2018-03-11T10:37:38.954Z,15.05
2018-03-11T10:38:38.873Z,15.05
2018-03-11T10:40:32.145Z,15.40
2018-03-11T10:41:32.081Z,15.38
2018-03-11T10:43:25.520Z,15.68
2018-03-11T10:44:25.300Z,15.89
2018-03-11T10:46:18.568Z,15.99
2018-03-11T10:47:18.505Z,15.88
2018-03-11T10:49:12.841Z,15.88
2018-03-11T10:50:12.717Z,15.81
2018-03-11T10:52:06.009Z,15.86
2018-03-11T10:53:05.931Z,15.84
2018-03-11T10:54:59.329Z,15.81
2018-03-11T10:55:59.143Z,15.73
2018-03-11T10:57:52.436Z,15.80
2018-03-11T10:58:52.357Z,15.84
2018-03-11T11:00:45.631Z,16.02
2018-03-11T11:01:45.570Z,15.99
2018-03-11T11:03:38.863Z,16.13
2018-03-11T11:04:38.782Z,16.11
2018-03-11T11:06:32.050Z,16.34
2018-03-11T11:07:31.984Z,16.32
2018-03-11T11:09:25.280Z,16.48
2018-03-11T11:10:25.197Z,16.47
2018-03-11T11:12:18.477Z,16.45
2018-03-11T11:13:18.413Z,16.39
2018-03-11T11:15:11.710Z,16.33
2018-03-11T11:16:11.628Z,16.40
2018-03-11T11:18:04.924Z,16.51
2018-03-11T11:19:04.840Z,16.57
2018-03-11T11:20:58.124Z,16.74
2018-03-11T11:21:58.056Z,16.80
2018-03-11T11:23:51.354Z,16.88
2018-03-11T11:24:51.274Z,16.88
2018-03-11T11:26:44.612Z,16.84
2018-03-11T11:27:44.492Z,16.80
2018-03-11T11:29:37.880Z,16.81
2018-03-11T11:30:37.695Z,16.90
2018-03-11T11:32:30.973Z,17.02
2018-03-11T11:33:30.909Z,17.03
2018-03-11T11:35:24.206Z,16.99
2018-03-11T11:36:24.125Z,17.05
2018-03-11T11:38:17.422Z,17.00
2018-03-11T11:39:17.341Z,17.10
2018-03-11T11:41:10.621Z,16.99
2018-03-11T11:42:10.557Z,17.03
2018-03-11T11:44:03.956Z,16.94
2018-03-11T11:45:03.776Z,16.94
2018-03-11T11:46:57.044Z,16.92
2018-03-11T11:47:56.974Z,16.94
2018-03-11T11:49:50.325Z,16.94
2018-03-11T11:50:50.243Z,17.05
2018-03-11T11:52:43.521Z,17.00
2018-03-11T11:53:43.460Z,17.02
2018-03-11T11:55:36.758Z,17.02
2018-03-11T11:56:36.676Z,17.13
2018-03-11T11:58:29.977Z,17.06
2018-03-11T11:59:29.895Z,17.09
2018-03-11T12:01:23.175Z,16.99
2018-03-11T12:02:23.114Z,17.07
2018-03-11T12:04:16.512Z,17.12
2018-03-11T12:05:16.332Z,17.10
2018-03-11T12:07:09.715Z,16.95
2018-03-11T12:08:09.552Z,17.09
2018-03-11T12:10:02.847Z,17.07
2018-03-11T12:11:02.770Z,17.00
2018-03-11T12:12:56.049Z,17.02
2018-03-11T12:13:55.988Z,16.99
2018-03-11T12:15:49.288Z,16.95
2018-03-11T12:16:49.211Z,17.02
2018-03-11T12:18:42.497Z,16.90
2018-03-11T12:19:42.416Z,16.81
2018-03-11T12:21:35.687Z,16.66
2018-03-11T12:22:35.672Z,16.63
2018-03-11T12:24:28.913Z,16.58
2018-03-11T12:25:28.828Z,16.57
2018-03-11T12:27:22.105Z,16.49
2018-03-11T12:28:22.044Z,16.45
2018-03-11T12:30:15.331Z,16.45
2018-03-11T12:31:15.251Z,16.45
2018-03-11T12:33:08.540Z,16.45
2018-03-11T12:34:08.458Z,16.47
2018-03-11T12:36:01.746Z,16.51
2018-03-11T12:37:01.664Z,16.59
2018-03-11T12:38:55.067Z,16.65
2018-03-11T12:39:54.874Z,16.63
2018-03-11T12:41:48.256Z,16.54
2018-03-11T12:42:48.079Z,16.65
2018-03-11T12:44:41.374Z,16.59
2018-03-11T12:45:41.287Z,16.62
2018-03-11T12:47:34.668Z,16.67
2018-03-11T12:48:34.492Z,16.70
2018-03-11T12:50:27.782Z,16.73
2018-03-11T12:51:27.703Z,16.70
2018-03-11T12:53:21.008Z,16.62
2018-03-11T12:54:20.957Z,16.63
2018-03-11T12:56:14.181Z,16.55
2018-03-11T12:57:14.118Z,16.55
2018-03-11T12:59:07.518Z,16.58
2018-03-11T13:00:07.357Z,16.55
2018-03-11T13:02:00.615Z,16.66
2018-03-11T13:03:00.552Z,16.67
2018-03-11T13:04:53.835Z,16.69
2018-03-11T13:05:53.756Z,16.63
2018-03-11T13:07:47.138Z,16.65
2018-03-11T13:08:46.966Z,16.55
2018-03-11T13:10:40.249Z,16.55
2018-03-11T13:11:40.171Z,16.57
2018-03-11T13:13:33.465Z,16.49
2018-03-11T13:14:33.384Z,16.47
2018-03-11T13:16:26.656Z,16.48
2018-03-11T13:17:26.593Z,16.48
2018-03-11T13:19:19.995Z,16.51
2018-03-11T13:20:19.834Z,16.47
2018-03-11T13:22:12.606Z,16.48
2018-03-11T13:23:12.542Z,16.54
2018-03-11T13:25:05.833Z,16.62
2018-03-11T13:26:05.754Z,16.51
2018-03-11T13:27:59.023Z,16.54
2018-03-11T13:28:58.960Z,16.67
2018-03-11T13:30:52.323Z,16.65
2018-03-11T13:31:52.242Z,16.62
2018-03-11T13:33:45.561Z,16.66
2018-03-11T13:34:45.460Z,16.70
2018-03-11T13:36:38.844Z,16.67
2018-03-11T13:37:38.665Z,16.67
2018-03-11T13:39:31.955Z,16.74
2018-03-11T13:40:31.877Z,16.80
2018-03-11T13:42:25.259Z,16.84
2018-03-11T13:43:25.086Z,16.90
2018-03-11T13:45:18.371Z,16.91
2018-03-11T13:46:18.292Z,16.91
2018-03-11T13:48:11.561Z,16.95
2018-03-11T13:49:11.501Z,16.90
2018-03-11T13:51:04.903Z,16.80
2018-03-11T13:52:04.711Z,16.74
2018-03-11T13:53:58.132Z,16.85
2018-03-11T13:54:57.919Z,16.87
2018-03-11T13:56:51.304Z,17.02
2018-03-11T13:57:51.130Z,16.97
2018-03-11T13:59:44.406Z,16.87
2018-03-11T14:00:44.385Z,16.92
2018-03-11T14:02:37.596Z,17.06
2018-03-11T14:03:37.537Z,16.99
2018-03-11T14:05:30.938Z,16.92
2018-03-11T14:06:30.747Z,17.05
2018-03-11T14:08:24.015Z,16.92
2018-03-11T14:09:23.954Z,16.95
2018-03-11T14:11:17.243Z,16.99
2018-03-11T14:12:17.168Z,16.99
2018-03-11T14:14:10.452Z,16.95
2018-03-11T14:15:10.374Z,16.94
2018-03-11T14:17:03.759Z,17.09
2018-03-11T14:18:03.584Z,17.00
2018-03-11T14:19:56.877Z,17.06
2018-03-11T14:20:56.796Z,17.02
2018-03-11T14:22:50.179Z,16.91
2018-03-11T14:23:50.005Z,16.94
2018-03-11T14:25:43.294Z,16.94
2018-03-11T14:26:43.259Z,16.88
2018-03-11T14:28:36.485Z,16.94
2018-03-11T14:29:36.425Z,16.95
2018-03-11T14:31:29.722Z,16.95
2018-03-11T14:32:29.642Z,17.02
2018-03-11T14:34:22.931Z,16.85
2018-03-11T14:35:22.854Z,16.73
2018-03-11T14:37:16.122Z,16.73
2018-03-11T14:38:16.063Z,16.84
2018-03-11T14:40:09.464Z,16.74
2018-03-11T14:41:09.271Z,16.69
2018-03-11T14:43:02.654Z,16.74
2018-03-11T14:44:02.481Z,16.74
2018-03-11T14:45:55.883Z,16.77
2018-03-11T14:46:55.689Z,16.74
2018-03-11T14:48:49.082Z,16.66
2018-03-11T14:49:48.912Z,16.55
2018-03-11T14:51:42.203Z,16.49
2018-03-11T14:52:42.125Z,16.58
2018-03-11T14:54:35.421Z,16.54
2018-03-11T14:55:35.358Z,16.47
2018-03-11T14:57:28.620Z,16.51
2018-03-11T14:58:28.561Z,16.51
2018-03-11T15:00:21.961Z,16.45
2018-03-11T15:01:21.767Z,16.47
2018-03-11T15:03:15.039Z,16.51
2018-03-11T15:04:14.977Z,16.45
2018-03-11T15:06:08.377Z,16.47
2018-03-11T15:07:08.251Z,16.48
2018-03-11T15:09:01.518Z,16.42
2018-03-11T15:10:01.457Z,16.42
2018-03-11T15:11:54.861Z,16.39
2018-03-11T15:12:54.668Z,16.44
2018-03-11T15:14:47.958Z,16.42
2018-03-11T15:15:47.880Z,16.47
2018-03-11T15:17:41.145Z,16.40
2018-03-11T15:18:41.086Z,16.44
2018-03-11T15:20:34.505Z,16.40
2018-03-11T15:21:34.298Z,16.44
2018-03-11T15:23:27.676Z,16.33
2018-03-11T15:24:27.501Z,16.37
2018-03-11T15:26:20.796Z,16.45
2018-03-11T15:27:20.707Z,16.39
2018-03-11T15:29:13.978Z,16.33
2018-03-11T15:30:13.918Z,16.32
2018-03-11T15:32:07.200Z,16.33
2018-03-11T15:33:07.147Z,16.30
2018-03-11T15:35:00.524Z,16.36
2018-03-11T15:36:00.329Z,16.33
2018-03-11T15:37:53.712Z,16.30
2018-03-11T15:38:53.535Z,16.32
2018-03-11T15:40:46.824Z,16.22
2018-03-11T15:41:46.743Z,16.26
2018-03-11T15:43:40.014Z,16.22
2018-03-11T15:44:39.947Z,16.30
2018-03-11T15:46:33.250Z,16.26
2018-03-11T15:47:33.161Z,16.30
2018-03-11T15:49:26.442Z,16.33
2018-03-11T15:50:26.383Z,16.34
2018-03-11T15:52:19.676Z,16.21
2018-03-11T15:53:19.595Z,16.22
2018-03-11T15:55:12.884Z,16.25
2018-03-11T15:56:12.805Z,16.22
2018-03-11T15:58:06.188Z,16.16
2018-03-11T15:59:06.012Z,16.22
2018-03-11T16:00:59.298Z,16.11
2018-03-11T16:01:59.219Z,15.99
2018-03-11T16:03:52.490Z,16.06
2018-03-11T16:04:52.423Z,15.96
2018-03-11T16:06:45.841Z,16.06
2018-03-11T16:07:45.622Z,15.99
2018-03-11T16:09:38.890Z,16.04
2018-03-11T16:10:38.828Z,15.99
2018-03-11T16:12:32.115Z,15.96
2018-03-11T16:13:32.037Z,15.99
2018-03-11T16:15:25.319Z,15.89
2018-03-11T16:16:25.241Z,15.91
2018-03-11T16:18:18.509Z,15.78
2018-03-11T16:19:18.448Z,15.84
2018-03-11T16:21:11.734Z,15.84
2018-03-11T16:22:11.654Z,15.78
2018-03-11T16:24:05.038Z,15.84
2018-03-11T16:25:04.861Z,15.84
2018-03-11T16:26:58.139Z,15.86
2018-03-11T16:27:58.057Z,15.89
2018-03-11T16:29:51.327Z,15.78
2018-03-11T16:30:51.269Z,15.83
2018-03-11T16:32:44.551Z,15.83
2018-03-11T16:33:44.472Z,15.80
2018-03-11T16:35:38.378Z,15.74
2018-03-11T16:36:37.991Z,15.70
2018-03-11T16:38:31.259Z,15.74
2018-03-11T16:39:31.198Z,15.68
2018-03-11T16:41:24.498Z,15.70
2018-03-11T16:42:24.404Z,15.59
2018-03-11T16:44:17.673Z,15.60
2018-03-11T16:45:17.612Z,15.59
2018-03-11T16:47:11.010Z,15.58
2018-03-11T16:48:10.813Z,15.45
2018-03-11T16:50:04.084Z,15.53
2018-03-11T16:51:04.029Z,15.44
2018-03-11T16:52:57.319Z,15.47
2018-03-11T16:53:57.240Z,15.38
2018-03-11T16:55:50.528Z,15.30
2018-03-11T16:56:50.482Z,15.41
2018-03-11T16:58:43.827Z,15.34
2018-03-11T16:59:43.652Z,15.25
2018-03-11T17:01:36.937Z,15.20
2018-03-11T17:02:36.857Z,15.19
2018-03-11T17:04:30.125Z,15.25
2018-03-11T17:05:30.064Z,15.13
2018-03-11T17:07:23.348Z,15.10
2018-03-11T17:08:23.268Z,15.12
2018-03-11T17:10:16.535Z,15.04
2018-03-11T17:11:16.472Z,15.01
2018-03-11T17:13:09.758Z,15.07
2018-03-11T17:14:09.684Z,15.08
2018-03-11T17:16:02.963Z,15.00
2018-03-11T17:17:02.883Z,15.04
2018-03-11T17:18:56.265Z,14.97
2018-03-11T17:19:56.097Z,15.02
2018-03-11T17:21:49.406Z,14.90
2018-03-11T17:22:49.328Z,14.98
2018-03-11T17:24:42.602Z,14.90
2018-03-11T17:25:42.579Z,14.79
2018-03-11T17:27:35.828Z,14.87
2018-03-11T17:28:35.747Z,14.83
2018-03-11T17:30:29.129Z,14.85
2018-03-11T17:31:28.953Z,14.83
2018-03-11T17:33:22.350Z,14.79
2018-03-11T17:34:22.169Z,14.80
2018-03-11T17:36:15.469Z,14.82
2018-03-11T17:37:15.389Z,14.77
2018-03-11T17:39:08.666Z,14.85
2018-03-11T17:40:08.600Z,14.83
2018-03-11T17:42:01.897Z,14.82
2018-03-11T17:43:01.813Z,14.83
2018-03-11T17:44:55.124Z,14.79
2018-03-11T17:45:55.018Z,14.82
2018-03-11T17:47:48.415Z,14.82
2018-03-11T17:48:48.229Z,14.79
2018-03-11T17:50:41.497Z,14.74
2018-03-11T17:51:41.433Z,14.80
2018-03-11T17:53:34.725Z,14.70
2018-03-11T17:54:34.643Z,14.75
2018-03-11T17:56:27.929Z,14.80
2018-03-11T17:57:27.848Z,14.74
2018-03-11T17:59:21.135Z,14.70
2018-03-11T18:00:21.061Z,14.75
2018-03-11T18:02:14.353Z,14.64
2018-03-11T18:03:14.273Z,14.61
2018-03-11T18:05:07.654Z,14.67
2018-03-11T18:06:07.485Z,14.61
2018-03-11T18:08:00.779Z,14.57
2018-03-11T18:09:00.700Z,14.52
2018-03-11T18:10:53.970Z,14.53
2018-03-11T18:11:53.907Z,14.48
2018-03-11T18:13:47.305Z,14.52
2018-03-11T18:14:47.119Z,14.53
2018-03-11T18:16:40.402Z,14.51
2018-03-11T18:17:40.322Z,14.49
2018-03-11T18:19:33.592Z,14.36
2018-03-11T18:20:33.529Z,14.28
2018-03-11T18:22:26.827Z,14.33
2018-03-11T18:23:26.739Z,14.26
2018-03-11T18:25:20.005Z,14.28
2018-03-11T18:26:19.972Z,14.27
2018-03-11T18:28:13.222Z,14.23
2018-03-11T18:29:13.143Z,14.26
2018-03-11T18:31:06.416Z,14.20
2018-03-11T18:32:06.380Z,14.12
2018-03-11T18:33:59.643Z,14.13
2018-03-11T18:34:59.560Z,14.12